Seastreak Highlands — WDE4031 — position and weather

sailwx.info

Track history (hours):
 
Tides and Currents Weather Stations Pressure Air Temp Water Temp Dewpoint Dewpoint Depression Visibility Wind Speed Wind Dir Waves Ship Positions

Seastreak Highlands

Owner: Seastreak llc, atlantic highlands, NJ. More information available from US FCC via Universal Licensing System and Coast Guard Vessel Documentation Center.

Last reported at 2014-Dec-19 02:32 UTC. Time now 2014-Dec-19 08:02 UTC.
Position N 40°25' W 074°02'.

Length 44 m; draft 2 m.

Type: High speed craft. MMSI: 367347670.

Date/timePositionNaut miles runAvg speedWind from/ knotsBaromVisibWave heightAir tempDewpointWater temp
2014-Dec-19 02:32N 40°25' W 074°02'3 2.2
2014-Dec-19 01:19N 40°28' W 074°01'1721.8
2014-Dec-19 00:33N 40°44' W 073°58'2016.7
2014-Dec-18 23:23N 40°25' W 073°60'1720.5
2014-Dec-18 22:34N 40°42' W 074°01'1 1.4
2014-Dec-18 21:34N 40°40' W 074°01'8 6.8
2014-Dec-18 20:23N 40°32' W 074°02'1315.2
2014-Dec-18 19:33N 40°45' W 073°58'0 0.0
2014-Dec-18 18:34N 40°45' W 073°58'0 0.0
2014-Dec-18 17:33N 40°45' W 073°58'0 0.0
2014-Dec-18 16:32N 40°45' W 073°58'0 0.0
2014-Dec-18 15:33N 40°45' W 073°58'5 2.4
2014-Dec-18 13:33N 40°41' W 074°01'2 1.6
2014-Dec-18 12:34N 40°39' W 074°02'14 1.3
2014-Dec-18 02:05N 40°25' W 074°02'7 7.3
2014-Dec-18 01:10N 40°32' W 074°02'1321.0
2014-Dec-18 00:34N 40°44' W 073°58'3 1.4
2014-Dec-17 22:33N 40°42' W 074°00'3 2.6
2014-Dec-17 21:34N 40°40' W 074°02'6 4.7
2014-Dec-17 20:20N 40°34' W 074°02'1114.1
2014-Dec-17 19:34N 40°45' W 073°58'0 0.0
2014-Dec-17 18:33N 40°45' W 073°58'0 0.0
2014-Dec-17 17:33N 40°45' W 073°58'0 0.0
2014-Dec-17 16:34N 40°45' W 073°58'0 0.0
2014-Dec-17 15:33N 40°45' W 073°58'5 4.9
2014-Dec-17 14:34N 40°40' W 074°02'8 7.6
2014-Dec-17 13:33N 40°33' W 074°02'6 5.7
2014-Dec-17 12:34N 40°38' W 074°02'13 5.8
2014-Dec-17 10:17N 40°25' W 074°02'5 0.6
2014-Dec-17 01:18N 40°30' W 074°02'1419.6
2014-Dec-17 00:33N 40°45' W 073°58'1916.4
2014-Dec-16 23:22N 40°25' W 074°01'1619.8
2014-Dec-16 22:33N 40°41' W 074°01'2 2.1
2014-Dec-16 21:34N 40°40' W 074°02'1110.5
2014-Dec-16 20:33N 40°29' W 074°02'1615.8
2014-Dec-16 19:33N 40°45' W 073°58'0 0.0
2014-Dec-16 18:33N 40°45' W 073°58'0 0.0
2014-Dec-16 17:33N 40°45' W 073°58'0 0.0
2014-Dec-16 16:33N 40°45' W 073°58'0 0.0
2014-Dec-16 15:33N 40°45' W 073°58'5 4.6
2014-Dec-16 14:34N 40°41' W 074°02'8 8.2
2014-Dec-16 13:33N 40°33' W 074°02'6 6.1
2014-Dec-16 12:34N 40°39' W 074°02'1412.8
2014-Dec-16 11:26N 40°25' W 073°60'2 2.1
2014-Dec-16 10:33N 40°25' W 074°02'0 0.0
2014-Dec-16 02:14N 40°25' W 074°02'9 8.1
2014-Dec-16 01:04N 40°35' W 074°02'1019.0
2014-Dec-16 00:31N 40°45' W 073°58'2015.0
2014-Dec-15 23:13N 40°25' W 074°02'1725.4
2014-Dec-15 22:33N 40°42' W 074°00'5 5.0
2014-Dec-15 21:33N 40°37' W 074°03'3 2.7
2014-Dec-15 20:29N 40°34' W 074°02'1111.6
2014-Dec-15 19:32N 40°45' W 073°58'0 0.0
2014-Dec-15 18:32N 40°45' W 073°58'0 0.0
2014-Dec-15 17:30N 40°45' W 073°58'0 0.0
2014-Dec-15 16:33N 40°45' W 073°58'0 0.0
2014-Dec-15 15:33N 40°45' W 073°58'5 5.1
2014-Dec-15 14:34N 40°40' W 074°02'7 6.7
2014-Dec-15 13:33N 40°34' W 074°02'5 4.8
2014-Dec-15 12:33N 40°38' W 074°02'  
2014-Dec-13 00:12N 40°25' W 074°00'710.9
2014-Dec-12 23:32N 40°33' W 074°02'1010.1
2014-Dec-12 22:34N 40°42' W 073°60'1714.6
2014-Dec-12 21:23N 40°25' W 074°02'0 0.0
2014-Dec-12 18:32N 40°25' W 074°02'4 0.9
2014-Dec-12 14:25N 40°29' W 074°02'1618.0
2014-Dec-12 13:32N 40°45' W 073°58'2013.5
2014-Dec-12 12:04N 40°25' W 074°02'0 0.0
2014-Dec-12 00:05N 40°25' W 074°02'815.1
2014-Dec-11 23:32N 40°33' W 074°02'8 7.9
2014-Dec-11 22:34N 40°41' W 074°01'1613.0
2014-Dec-11 21:20N 40°25' W 074°02'8 1.1
2014-Dec-11 14:17N 40°33' W 074°02'1216.5
2014-Dec-11 13:33N 40°45' W 073°58'2014.8
2014-Dec-11 12:14N 40°25' W 074°02'8 0.7
2014-Dec-10 23:30N 40°34' W 074°02'8 8.7
2014-Dec-10 22:34N 40°42' W 074°00'17 7.5
2014-Dec-10 20:21N 40°25' W 074°02'0 0.0
2014-Dec-10 16:31N 40°25' W 074°02'6 2.8
2014-Dec-10 14:17N 40°31' W 074°02'1318.4
2014-Dec-10 13:33N 40°45' W 073°58'11 0.8
2014-Dec-09 23:33N 40°34' W 074°02'3 2.9
2014-Dec-09 22:33N 40°36' W 074°03'3 2.7
2014-Dec-09 21:34N 40°34' W 074°02'2 1.7
2014-Dec-09 20:33N 40°35' W 074°03'10 8.1
2014-Dec-09 19:17N 40°25' W 074°02'1723.5
2014-Dec-09 18:33N 40°42' W 074°00'1413.5
2014-Dec-09 17:32N 40°29' W 074°02'1313.1
2014-Dec-09 16:34N 40°41' W 074°02'1010.1
2014-Dec-09 15:31N 40°31' W 074°03'5 5.0
2014-Dec-09 14:28N 40°26' W 074°01'1920.6
2014-Dec-09 13:33N 40°45' W 073°58'  
Track history (hours):
 
Tides and Currents Weather Stations Pressure Air Temp Water Temp Dewpoint Dewpoint Depression Visibility Wind Speed Wind Dir Waves Ship Positions

Seastreak Highlands

Owner: Seastreak llc, atlantic highlands, NJ. More information available from US FCC via Universal Licensing System and Coast Guard Vessel Documentation Center.

Last reported at 2014-Dec-19 02:32 UTC. Time now 2014-Dec-19 08:02 UTC.
Position N 40°25' W 074°02'.

Length 44 m; draft 2 m.

Type: High speed craft. MMSI: 367347670.

Date/timePositionNaut miles runAvg speedWind from/ knotsBaromVisibWave heightAir tempDewpointWater temp
2014-Dec-19 02:32N 40°25' W 074°02'3 2.2
2014-Dec-19 01:19N 40°28' W 074°01'1721.8
2014-Dec-19 00:33N 40°44' W 073°58'2016.7
2014-Dec-18 23:23N 40°25' W 073°60'1720.5
2014-Dec-18 22:34N 40°42' W 074°01'1 1.4
2014-Dec-18 21:34N 40°40' W 074°01'8 6.8
2014-Dec-18 20:23N 40°32' W 074°02'1315.2
2014-Dec-18 19:33N 40°45' W 073°58'0 0.0
2014-Dec-18 18:34N 40°45' W 073°58'0 0.0
2014-Dec-18 17:33N 40°45' W 073°58'0 0.0
2014-Dec-18 16:32N 40°45' W 073°58'0 0.0
2014-Dec-18 15:33N 40°45' W 073°58'5 2.4
2014-Dec-18 13:33N 40°41' W 074°01'2 1.6
2014-Dec-18 12:34N 40°39' W 074°02'14 1.3
2014-Dec-18 02:05N 40°25' W 074°02'7 7.3
2014-Dec-18 01:10N 40°32' W 074°02'1321.0
2014-Dec-18 00:34N 40°44' W 073°58'3 1.4
2014-Dec-17 22:33N 40°42' W 074°00'3 2.6
2014-Dec-17 21:34N 40°40' W 074°02'6 4.7
2014-Dec-17 20:20N 40°34' W 074°02'1114.1
2014-Dec-17 19:34N 40°45' W 073°58'0 0.0
2014-Dec-17 18:33N 40°45' W 073°58'0 0.0
2014-Dec-17 17:33N 40°45' W 073°58'0 0.0
2014-Dec-17 16:34N 40°45' W 073°58'0 0.0
2014-Dec-17 15:33N 40°45' W 073°58'5 4.9
2014-Dec-17 14:34N 40°40' W 074°02'8 7.6
2014-Dec-17 13:33N 40°33' W 074°02'6 5.7
2014-Dec-17 12:34N 40°38' W 074°02'13 5.8
2014-Dec-17 10:17N 40°25' W 074°02'5 0.6
2014-Dec-17 01:18N 40°30' W 074°02'1419.6
2014-Dec-17 00:33N 40°45' W 073°58'1916.4
2014-Dec-16 23:22N 40°25' W 074°01'1619.8
2014-Dec-16 22:33N 40°41' W 074°01'2 2.1
2014-Dec-16 21:34N 40°40' W 074°02'1110.5
2014-Dec-16 20:33N 40°29' W 074°02'1615.8
2014-Dec-16 19:33N 40°45' W 073°58'0 0.0
2014-Dec-16 18:33N 40°45' W 073°58'0 0.0
2014-Dec-16 17:33N 40°45' W 073°58'0 0.0
2014-Dec-16 16:33N 40°45' W 073°58'0 0.0
2014-Dec-16 15:33N 40°45' W 073°58'5 4.6
2014-Dec-16 14:34N 40°41' W 074°02'8 8.2
2014-Dec-16 13:33N 40°33' W 074°02'6 6.1
2014-Dec-16 12:34N 40°39' W 074°02'1412.8
2014-Dec-16 11:26N 40°25' W 073°60'2 2.1
2014-Dec-16 10:33N 40°25' W 074°02'0 0.0
2014-Dec-16 02:14N 40°25' W 074°02'9 8.1
2014-Dec-16 01:04N 40°35' W 074°02'1019.0
2014-Dec-16 00:31N 40°45' W 073°58'2015.0
2014-Dec-15 23:13N 40°25' W 074°02'1725.4
2014-Dec-15 22:33N 40°42' W 074°00'5 5.0
2014-Dec-15 21:33N 40°37' W 074°03'3 2.7
2014-Dec-15 20:29N 40°34' W 074°02'1111.6
2014-Dec-15 19:32N 40°45' W 073°58'0 0.0
2014-Dec-15 18:32N 40°45' W 073°58'0 0.0
2014-Dec-15 17:30N 40°45' W 073°58'0 0.0
2014-Dec-15 16:33N 40°45' W 073°58'0 0.0
2014-Dec-15 15:33N 40°45' W 073°58'5 5.1
2014-Dec-15 14:34N 40°40' W 074°02'7 6.7
2014-Dec-15 13:33N 40°34' W 074°02'5 4.8
2014-Dec-15 12:33N 40°38' W 074°02'  
2014-Dec-13 00:12N 40°25' W 074°00'710.9
2014-Dec-12 23:32N 40°33' W 074°02'1010.1
2014-Dec-12 22:34N 40°42' W 073°60'1714.6
2014-Dec-12 21:23N 40°25' W 074°02'0 0.0
2014-Dec-12 18:32N 40°25' W 074°02'4 0.9
2014-Dec-12 14:25N 40°29' W 074°02'1618.0
2014-Dec-12 13:32N 40°45' W 073°58'2013.5
2014-Dec-12 12:04N 40°25' W 074°02'0 0.0
2014-Dec-12 00:05N 40°25' W 074°02'815.1
2014-Dec-11 23:32N 40°33' W 074°02'8 7.9
2014-Dec-11 22:34N 40°41' W 074°01'1613.0
2014-Dec-11 21:20N 40°25' W 074°02'8 1.1
2014-Dec-11 14:17N 40°33' W 074°02'1216.5
2014-Dec-11 13:33N 40°45' W 073°58'2014.8
2014-Dec-11 12:14N 40°25' W 074°02'8 0.7
2014-Dec-10 23:30N 40°34' W 074°02'8 8.7
2014-Dec-10 22:34N 40°42' W 074°00'17 7.5
2014-Dec-10 20:21N 40°25' W 074°02'0 0.0
2014-Dec-10 16:31N 40°25' W 074°02'6 2.8
2014-Dec-10 14:17N 40°31' W 074°02'1318.4
2014-Dec-10 13:33N 40°45' W 073°58'11 0.8
2014-Dec-09 23:33N 40°34' W 074°02'3 2.9
2014-Dec-09 22:33N 40°36' W 074°03'3 2.7
2014-Dec-09 21:34N 40°34' W 074°02'2 1.7
2014-Dec-09 20:33N 40°35' W 074°03'10 8.1
2014-Dec-09 19:17N 40°25' W 074°02'1723.5
2014-Dec-09 18:33N 40°42' W 074°00'1413.5
2014-Dec-09 17:32N 40°29' W 074°02'1313.1
2014-Dec-09 16:34N 40°41' W 074°02'1010.1
2014-Dec-09 15:31N 40°31' W 074°03'5 5.0
2014-Dec-09 14:28N 40°26' W 074°01'1920.6
2014-Dec-09 13:33N 40°45' W 073°58'  

Dump ship's entire track history